Time;durP1;ratioP1;P1;durP2;ratioP2;P2;SDS_P1;SDS_P2;PMS_P1;PMS_P2;Temp;Humidity;BMP_temperature;BMP_pressure;BME280_temperature;BME280_humidity;BME280_pressure;Samples;Min_cycle;Max_cycle;Signal;HPM_P1;HPM_P2
2022/06/05 00:00:37;;;;;;;0.85;0.85;;;;;;;;;;1804700;78;26357;-42
2022/06/05 00:03:12;;;;;;;0.90;0.90;;;;;;;;;;1804181;78;26420;-45
2022/06/05 00:05:53;;;;;;;1.00;1.00;;;;;;;;;;1796670;78;26585;-45
2022/06/05 00:08:28;;;;;;;0.80;0.80;;;;;;;;;;1794861;78;26329;-43
2022/06/05 00:10:56;;;;;;;0.95;0.95;;;;;;;;;;1798285;78;26392;-45
2022/06/05 00:13:31;;;;;;;0.90;0.90;;;;;;;;;;1794338;78;26319;-43
2022/06/05 00:15:59;;;;;;;1.10;1.00;;;;;;;;;;1792226;78;26849;-44
2022/06/05 00:18:26;;;;;;;1.10;0.85;;;;;;;;;;1794575;78;26338;-45
2022/06/05 00:20:53;;;;;;;1.17;1.00;;;;;;;;;;1791294;78;26287;-47
2022/06/05 00:23:21;;;;;;;0.80;0.80;;;;;;;;;;1796047;78;26278;-42
2022/06/05 00:25:55;;;;;;;0.80;0.80;;;;;;;;;;1787675;78;26236;-43
2022/06/05 00:28:30;;;;;;;0.90;0.90;;;;;;;;;;1780864;78;26711;-43
2022/06/05 00:31:02;;;;;;;0.90;0.90;;;;;;;;;;1790616;78;26287;-42
2022/06/05 00:33:31;;;;;;;0.80;0.80;;;;;;;;;;1783086;78;26738;-43
2022/06/05 00:35:59;;;;;;;0.90;0.90;;;;;;;;;;1791870;78;26742;-44
2022/06/05 00:38:31;;;;;;;0.80;0.80;;;;;;;;;;1795007;78;26357;-44
2022/06/05 00:41:16;;;;;;;0.85;0.85;;;;;;;;;;1796788;78;26818;-44
2022/06/05 00:43:45;;;;;;;0.90;0.90;;;;;;;;;;1796638;78;26267;-43
2022/06/05 00:46:12;;;;;;;0.80;0.80;;;;;;;;;;1802449;78;26389;-43
2022/06/05 00:48:39;;;;;;;0.85;0.85;;;;;;;;;;1797067;78;26323;-44
2022/06/05 00:51:06;;;;;;;0.88;0.88;;;;;;;;;;1793571;78;26353;-45
2022/06/05 00:53:34;;;;;;;0.90;0.90;;;;;;;;;;1797295;78;26943;-43
2022/06/05 00:56:01;;;;;;;0.80;0.80;;;;;;;;;;1790176;78;26762;-45
2022/06/05 00:58:30;;;;;;;0.80;0.80;;;;;;;;;;1799169;78;26317;-43
2022/06/05 01:00:58;;;;;;;1.10;0.90;;;;;;;;;;1790246;78;26360;-44
2022/06/05 01:03:25;;;;;;;0.98;0.98;;;;;;;;;;1799074;78;26267;-42
2022/06/05 01:05:52;;;;;;;0.80;0.80;;;;;;;;;;1800620;78;26287;-44
2022/06/05 01:08:20;;;;;;;0.90;0.90;;;;;;;;;;1801346;77;26341;-44
2022/06/05 01:10:55;;;;;;;1.20;1.10;;;;;;;;;;1800948;78;26319;-44
2022/06/05 01:13:24;;;;;;;0.75;0.75;;;;;;;;;;1800419;78;26303;-45
2022/06/05 01:15:55;;;;;;;0.80;0.80;;;;;;;;;;1796379;78;26338;-45
2022/06/05 01:18:24;;;;;;;0.90;0.90;;;;;;;;;;1798822;78;26368;-43
2022/06/05 01:21:11;;;;;;;0.95;0.95;;;;;;;;;;1799452;78;26388;-47
2022/06/05 01:23:41;;;;;;;0.80;0.80;;;;;;;;;;1794261;78;26362;-44
2022/06/05 01:26:21;;;;;;;0.80;0.80;;;;;;;;;;1794321;78;26771;-44
2022/06/05 01:28:53;;;;;;;0.90;0.90;;;;;;;;;;1799751;78;26291;-42
2022/06/05 01:31:22;;;;;;;0.90;0.90;;;;;;;;;;1790740;78;26914;-46
2022/06/05 01:33:50;;;;;;;0.72;0.72;;;;;;;;;;1792338;78;26818;-44
2022/06/05 01:36:28;;;;;;;0.90;0.90;;;;;;;;;;1814264;78;27442;-45
2022/06/05 01:38:57;;;;;;;0.80;0.80;;;;;;;;;;1808322;78;27385;-42
2022/06/05 01:41:29;;;;;;;0.80;0.80;;;;;;;;;;1811329;78;26753;-43
2022/06/05 01:43:57;;;;;;;0.80;0.80;;;;;;;;;;1801595;78;26634;-43
2022/06/05 01:46:29;;;;;;;0.78;0.78;;;;;;;;;;1799096;78;26806;-44
2022/06/05 01:48:57;;;;;;;0.80;0.80;;;;;;;;;;1800111;78;26380;-44
2022/06/05 01:51:25;;;;;;;0.78;0.78;;;;;;;;;;1793274;78;26790;-44
2022/06/05 01:53:54;;;;;;;0.90;0.90;;;;;;;;;;1797072;78;27720;-44
2022/06/05 01:56:28;;;;;;;0.80;0.80;;;;;;;;;;1799894;78;26334;-41
2022/06/05 01:58:57;;;;;;;0.70;0.70;;;;;;;;;;1800082;78;26388;-45
2022/06/05 02:01:26;;;;;;;0.75;0.75;;;;;;;;;;1804963;78;26231;-43
2022/06/05 02:04:10;;;;;;;0.80;0.80;;;;;;;;;;1797980;78;26338;-46
2022/06/05 02:06:39;;;;;;;0.90;0.90;;;;;;;;;;1799571;78;26217;-43
2022/06/05 02:09:08;;;;;;;0.70;0.70;;;;;;;;;;1798174;78;26294;-41
2022/06/05 02:11:35;;;;;;;0.70;0.70;;;;;;;;;;1798663;78;26334;-45
2022/06/05 02:14:04;;;;;;;0.70;0.70;;;;;;;;;;1799193;78;26336;-44
2022/06/05 02:16:33;;;;;;;0.72;0.72;;;;;;;;;;1801281;78;26272;-45
2022/06/05 02:19:01;;;;;;;0.80;0.80;;;;;;;;;;1800010;78;26282;-41
2022/06/05 02:21:29;;;;;;;0.80;0.80;;;;;;;;;;1799843;78;26300;-43
2022/06/05 02:23:57;;;;;;;0.72;0.72;;;;;;;;;;1802241;78;26286;-46
2022/06/05 02:26:26;;;;;;;0.80;0.80;;;;;;;;;;1801533;78;26333;-44
2022/06/05 02:28:53;;;;;;;0.80;0.80;;;;;;;;;;1805458;78;26288;-45
2022/06/05 02:31:22;;;;;;;0.80;0.80;;;;;;;;;;1800032;78;26279;-45
2022/06/05 02:33:51;;;;;;;0.75;0.75;;;;;;;;;;1818606;78;26341;-46
2022/06/05 02:36:36;;;;;;;0.90;0.90;;;;;;;;;;1813349;78;26788;-44
2022/06/05 02:39:05;;;;;;;0.80;0.80;;;;;;;;;;1808715;78;26327;-45
2022/06/05 02:41:34;;;;;;;0.80;0.80;;;;;;;;;;1789461;78;26301;-44
2022/06/05 02:44:30;;;;;;;0.90;0.90;;;;;;;;;;1796500;78;26267;-43
2022/06/05 02:47:05;;;;;;;0.80;0.80;;;;;;;;;;1782689;78;26290;-43
2022/06/05 02:49:34;;;;;;;0.82;0.82;;;;;;;;;;1814661;78;26976;-46
2022/06/05 02:52:02;;;;;;;0.80;0.80;;;;;;;;;;1804096;78;26735;-46
2022/06/05 02:54:30;;;;;;;0.80;0.80;;;;;;;;;;1811684;78;27038;-44
2022/06/05 02:56:57;;;;;;;0.65;0.65;;;;;;;;;;1798695;78;26251;-44
2022/06/05 02:59:25;;;;;;;1.67;0.80;;;;;;;;;;1793242;78;26381;-42
2022/06/05 03:04:38;;;;;;;0.80;0.80;;;;;;;;;;1790282;78;26393;-44
2022/06/05 03:07:06;;;;;;;0.80;0.80;;;;;;;;;;1811755;78;26804;-43
2022/06/05 03:09:33;;;;;;;0.80;0.80;;;;;;;;;;1821543;77;26337;-44
2022/06/05 03:12:01;;;;;;;0.80;0.80;;;;;;;;;;1800413;77;26929;-44
2022/06/05 03:14:28;;;;;;;0.80;0.80;;;;;;;;;;1809124;77;26283;-40
2022/06/05 03:16:56;;;;;;;0.70;0.70;;;;;;;;;;1811213;77;26326;-42
2022/06/05 03:19:23;;;;;;;0.70;0.70;;;;;;;;;;1811362;77;26861;-44
2022/06/05 03:21:50;;;;;;;0.80;0.80;;;;;;;;;;1818280;78;26966;-42
2022/06/05 03:24:17;;;;;;;0.70;0.70;;;;;;;;;;1809238;78;26817;-43
2022/06/05 03:26:45;;;;;;;0.80;0.80;;;;;;;;;;1823085;77;26374;-42
2022/06/05 03:29:13;;;;;;;0.80;0.80;;;;;;;;;;1811976;77;26394;-44
2022/06/05 03:31:40;;;;;;;0.60;0.60;;;;;;;;;;1811201;78;26313;-41
2022/06/05 03:34:08;;;;;;;1.42;0.70;;;;;;;;;;1812391;77;26408;-42
2022/06/05 03:36:35;;;;;;;0.80;0.80;;;;;;;;;;1793517;78;26754;-42
2022/06/05 03:39:03;;;;;;;0.78;0.78;;;;;;;;;;1819319;78;26220;-44
2022/06/05 03:41:31;;;;;;;1.15;0.80;;;;;;;;;;1815134;77;26746;-42
2022/06/05 03:43:58;;;;;;;0.78;0.78;;;;;;;;;;1827007;78;26704;-44
2022/06/05 03:46:25;;;;;;;0.70;0.70;;;;;;;;;;1811674;78;26714;-44
2022/06/05 03:48:52;;;;;;;0.70;0.70;;;;;;;;;;1813859;77;26788;-44
2022/06/05 03:51:21;;;;;;;0.70;0.70;;;;;;;;;;1811938;78;27352;-44
2022/06/05 03:53:49;;;;;;;0.70;0.70;;;;;;;;;;1808519;77;26361;-44
2022/06/05 03:56:20;;;;;;;0.80;0.80;;;;;;;;;;1809716;78;26297;-45
2022/06/05 03:58:49;;;;;;;0.80;0.80;;;;;;;;;;1810132;77;26403;-45
2022/06/05 04:01:17;;;;;;;1.32;0.90;;;;;;;;;;1811535;78;26267;-47
2022/06/05 04:03:45;;;;;;;0.70;0.70;;;;;;;;;;1808706;78;26773;-42
2022/06/05 04:06:13;;;;;;;0.80;0.80;;;;;;;;;;1800571;78;26353;-42
2022/06/05 04:08:41;;;;;;;0.90;0.90;;;;;;;;;;1800657;78;26274;-43
2022/06/05 04:11:10;;;;;;;0.80;0.80;;;;;;;;;;1800439;78;26287;-42
2022/06/05 04:13:37;;;;;;;0.70;0.70;;;;;;;;;;1799243;78;26269;-44
2022/06/05 04:16:12;;;;;;;0.80;0.80;;;;;;;;;;1796145;78;26360;-42
2022/06/05 04:18:40;;;;;;;0.80;0.80;;;;;;;;;;1796160;78;26790;-42
2022/06/05 04:21:08;;;;;;;0.70;0.70;;;;;;;;;;1796802;78;26283;-47
2022/06/05 04:23:36;;;;;;;1.67;0.82;;;;;;;;;;1792298;78;26287;-45
2022/06/05 04:26:09;;;;;;;0.80;0.80;;;;;;;;;;1799018;78;26278;-43
2022/06/05 04:28:37;;;;;;;0.70;0.70;;;;;;;;;;1779845;78;26747;-42
2022/06/05 04:31:05;;;;;;;0.90;0.90;;;;;;;;;;1794464;78;26377;-42
2022/06/05 04:33:33;;;;;;;0.82;0.82;;;;;;;;;;1800271;78;26735;-42
2022/06/05 04:36:00;;;;;;;0.72;0.70;;;;;;;;;;1799225;78;26279;-42
2022/06/05 04:38:28;;;;;;;0.70;0.70;;;;;;;;;;1802757;78;26339;-42
2022/06/05 04:40:55;;;;;;;0.70;0.70;;;;;;;;;;1804453;78;26291;-44
2022/06/05 04:43:22;;;;;;;0.80;0.80;;;;;;;;;;1795518;78;26288;-44
2022/06/05 04:45:50;;;;;;;0.70;0.70;;;;;;;;;;1796610;78;26830;-44
2022/06/05 04:48:17;;;;;;;0.70;0.70;;;;;;;;;;1797896;78;26452;-47
2022/06/05 04:50:44;;;;;;;0.70;0.70;;;;;;;;;;1798187;78;26209;-43
2022/06/05 04:53:11;;;;;;;0.80;0.80;;;;;;;;;;1800992;78;26325;-47
2022/06/05 04:55:40;;;;;;;0.80;0.80;;;;;;;;;;1814761;78;26342;-45
2022/06/05 04:58:07;;;;;;;0.72;0.72;;;;;;;;;;1800118;78;26295;-47
2022/06/05 05:00:34;;;;;;;0.72;0.72;;;;;;;;;;1797323;78;26661;-45
2022/06/05 05:03:02;;;;;;;0.60;0.60;;;;;;;;;;1812971;78;26544;-46
2022/06/05 05:05:29;;;;;;;0.82;0.82;;;;;;;;;;1803700;78;26938;-46
2022/06/05 05:07:56;;;;;;;0.70;0.70;;;;;;;;;;1790582;78;26277;-49
2022/06/05 05:10:23;;;;;;;0.80;0.80;;;;;;;;;;1796583;78;26337;-45
2022/06/05 05:12:52;;;;;;;0.70;0.70;;;;;;;;;;1817620;78;26274;-45
2022/06/05 05:15:19;;;;;;;2.75;0.80;;;;;;;;;;1798879;78;26778;-45
2022/06/05 05:17:47;;;;;;;0.80;0.80;;;;;;;;;;1801650;78;26322;-44
2022/06/05 05:20:14;;;;;;;0.75;0.75;;;;;;;;;;1800366;78;26372;-43
2022/06/05 05:22:42;;;;;;;0.85;0.85;;;;;;;;;;1801666;78;26266;-43
2022/06/05 05:25:10;;;;;;;0.80;0.80;;;;;;;;;;1798430;78;26301;-44
2022/06/05 05:27:39;;;;;;;0.80;0.80;;;;;;;;;;1792811;78;27451;-44
2022/06/05 05:30:08;;;;;;;0.68;0.68;;;;;;;;;;1799481;78;26685;-42
2022/06/05 05:32:35;;;;;;;0.80;0.80;;;;;;;;;;1787196;78;28309;-44
2022/06/05 05:35:02;;;;;;;0.80;0.80;;;;;;;;;;1798413;78;26291;-43
2022/06/05 05:37:30;;;;;;;1.20;0.70;;;;;;;;;;1793372;78;26237;-44
2022/06/05 05:42:42;;;;;;;0.80;0.80;;;;;;;;;;1805965;78;26306;-44
2022/06/05 05:45:10;;;;;;;0.80;0.80;;;;;;;;;;1799914;78;26312;-44
2022/06/05 05:47:37;;;;;;;1.17;0.70;;;;;;;;;;1814628;78;26334;-47
2022/06/05 05:50:06;;;;;;;1.07;0.90;;;;;;;;;;1805202;78;26251;-44
2022/06/05 05:52:33;;;;;;;0.70;0.70;;;;;;;;;;1811609;78;26333;-44
2022/06/05 05:55:01;;;;;;;0.70;0.70;;;;;;;;;;1812539;78;26805;-44
2022/06/05 05:57:28;;;;;;;1.22;0.85;;;;;;;;;;1812033;78;26302;-44
2022/06/05 05:59:56;;;;;;;1.75;0.90;;;;;;;;;;1802441;78;26305;-44
2022/06/05 06:02:26;;;;;;;0.85;0.85;;;;;;;;;;1818062;78;26738;-43
2022/06/05 06:04:53;;;;;;;2.87;0.90;;;;;;;;;;1813726;77;26726;-44
2022/06/05 06:07:21;;;;;;;1.47;0.98;;;;;;;;;;1800095;78;26381;-49
2022/06/05 06:09:48;;;;;;;1.02;0.80;;;;;;;;;;1802946;78;26379;-44
2022/06/05 06:12:15;;;;;;;0.93;0.72;;;;;;;;;;1822386;78;27591;-46
2022/06/05 06:14:42;;;;;;;0.72;0.72;;;;;;;;;;1797355;78;26271;-45
2022/06/05 06:17:10;;;;;;;0.80;0.80;;;;;;;;;;1794090;78;26310;-45
2022/06/05 06:19:37;;;;;;;1.42;0.80;;;;;;;;;;1820873;78;26308;-43
2022/06/05 06:22:05;;;;;;;0.80;0.80;;;;;;;;;;1806953;78;26356;-44
2022/06/05 06:24:32;;;;;;;2.05;1.00;;;;;;;;;;1810178;78;26295;-44
2022/06/05 06:26:59;;;;;;;0.80;0.80;;;;;;;;;;1801755;78;26294;-43
2022/06/05 06:29:27;;;;;;;1.92;0.90;;;;;;;;;;1803023;78;26297;-49
2022/06/05 06:31:54;;;;;;;2.05;0.80;;;;;;;;;;1800335;78;26360;-44
2022/06/05 06:34:22;;;;;;;2.90;1.00;;;;;;;;;;1797900;78;26291;-43
2022/06/05 06:36:49;;;;;;;2.40;0.90;;;;;;;;;;1816302;78;26631;-43
2022/06/05 06:39:17;;;;;;;0.70;0.70;;;;;;;;;;1765376;78;26271;-45
2022/06/05 06:41:44;;;;;;;0.90;0.90;;;;;;;;;;1823875;78;26312;-45
2022/06/05 06:44:11;;;;;;;0.70;0.70;;;;;;;;;;1797852;78;26293;-46
2022/06/05 06:46:38;;;;;;;0.80;0.80;;;;;;;;;;1818511;78;26373;-43
2022/06/05 06:49:06;;;;;;;1.45;0.90;;;;;;;;;;1807592;78;26734;-44
2022/06/05 06:51:34;;;;;;;1.47;1.10;;;;;;;;;;1799657;78;26307;-43
2022/06/05 06:54:01;;;;;;;0.90;0.90;;;;;;;;;;1795403;78;26283;-45
2022/06/05 06:56:30;;;;;;;1.27;0.80;;;;;;;;;;1813693;78;26201;-48
2022/06/05 06:58:58;;;;;;;1.52;0.70;;;;;;;;;;1803884;78;26330;-45
2022/06/05 07:01:26;;;;;;;0.80;0.80;;;;;;;;;;1804446;78;26255;-48
2022/06/05 07:03:53;;;;;;;0.90;0.90;;;;;;;;;;1763799;80;26731;-45
2022/06/05 07:06:20;;;;;;;0.88;0.88;;;;;;;;;;1800030;78;26263;-43
2022/06/05 07:08:49;;;;;;;2.02;0.80;;;;;;;;;;1798324;78;26259;-46
2022/06/05 07:11:17;;;;;;;0.90;0.90;;;;;;;;;;1802627;78;26276;-44
2022/06/05 07:13:44;;;;;;;1.57;1.02;;;;;;;;;;1805515;78;26746;-45
2022/06/05 07:16:12;;;;;;;0.90;0.90;;;;;;;;;;1801817;78;26727;-45
2022/06/05 07:18:39;;;;;;;1.52;0.90;;;;;;;;;;1798164;78;26333;-45
2022/06/05 07:21:08;;;;;;;1.17;0.93;;;;;;;;;;1803093;78;26809;-44
2022/06/05 07:23:35;;;;;;;1.87;0.85;;;;;;;;;;1815696;78;26336;-43
2022/06/05 07:26:03;;;;;;;0.82;0.82;;;;;;;;;;1810223;78;26715;-47
2022/06/05 07:28:30;;;;;;;0.80;0.80;;;;;;;;;;1778155;78;26335;-43
2022/06/05 07:31:00;;;;;;;1.92;1.00;;;;;;;;;;1800795;78;26263;-44
2022/06/05 07:33:26;;;;;;;0.90;0.90;;;;;;;;;;1799468;77;26298;-43
2022/06/05 07:36:02;;;;;;;0.90;0.90;;;;;;;;;;1794486;78;26353;-44
2022/06/05 07:38:31;;;;;;;1.17;0.95;;;;;;;;;;1807865;78;26350;-45
2022/06/05 07:40:58;;;;;;;4.17;1.00;;;;;;;;;;1812455;78;26325;-43
2022/06/05 07:43:25;;;;;;;2.70;1.17;;;;;;;;;;1802547;78;26785;-43
2022/06/05 07:45:53;;;;;;;1.07;1.07;;;;;;;;;;1809041;78;26283;-44
2022/06/05 07:48:20;;;;;;;2.08;1.07;;;;;;;;;;1812164;78;26268;-44
2022/06/05 07:56:18;;;;;;;1.75;1.20;;;;;;;;;;1802791;78;27062;-45
2022/06/05 07:58:45;;;;;;;2.65;1.12;;;;;;;;;;1800618;78;26760;-45
2022/06/05 08:01:13;;;;;;;3.08;1.37;;;;;;;;;;1791549;78;26238;-46
2022/06/05 08:03:40;;;;;;;2.55;1.22;;;;;;;;;;1810432;78;26881;-45
2022/06/05 08:06:08;;;;;;;1.12;1.02;;;;;;;;;;1792419;78;26785;-47
2022/06/05 08:08:36;;;;;;;3.47;1.30;;;;;;;;;;1814221;78;26288;-45
2022/06/05 08:11:04;;;;;;;1.30;1.27;;;;;;;;;;1798339;78;26322;-45
2022/06/05 08:13:32;;;;;;;1.70;1.25;;;;;;;;;;1809317;78;26630;-44
2022/06/05 08:15:59;;;;;;;1.40;1.30;;;;;;;;;;1816650;78;26821;-43
2022/06/05 08:18:27;;;;;;;2.42;1.25;;;;;;;;;;1808767;78;26334;-43
2022/06/05 08:20:54;;;;;;;1.45;1.35;;;;;;;;;;1808217;78;26340;-46
2022/06/05 08:23:22;;;;;;;1.40;1.10;;;;;;;;;;1807121;78;26695;-43
2022/06/05 08:25:49;;;;;;;3.05;1.40;;;;;;;;;;1806739;78;26806;-47
2022/06/05 08:28:17;;;;;;;1.65;1.30;;;;;;;;;;1808676;78;26283;-42
2022/06/05 08:30:44;;;;;;;1.10;1.10;;;;;;;;;;1806313;78;26310;-43
2022/06/05 08:33:11;;;;;;;6.10;1.30;;;;;;;;;;1805764;77;26345;-44
2022/06/05 08:35:39;;;;;;;1.30;1.30;;;;;;;;;;1806714;78;26316;-43
2022/06/05 08:43:56;;;;;;;1.65;1.20;;;;;;;;;;1762952;79;26420;-43
2022/06/05 08:46:28;;;;;;;3.42;1.45;;;;;;;;;;1771187;79;26700;-45
2022/06/05 08:49:03;;;;;;;1.85;1.27;;;;;;;;;;1779136;78;26359;-51
2022/06/05 08:51:41;;;;;;;2.62;1.62;;;;;;;;;;1794717;78;28448;-52
2022/06/05 08:54:13;;;;;;;4.50;1.70;;;;;;;;;;1808274;78;26289;-55
2022/06/05 08:56:42;;;;;;;2.37;1.60;;;;;;;;;;1800470;78;26378;-47
2022/06/05 08:59:25;;;;;;;2.15;1.75;;;;;;;;;;1802063;78;26376;-52
2022/06/05 09:02:00;;;;;;;4.70;1.77;;;;;;;;;;1803500;78;26885;-53
2022/06/05 09:04:29;;;;;;;4.33;1.47;;;;;;;;;;1757841;78;26826;-52
2022/06/05 09:06:57;;;;;;;3.05;1.50;;;;;;;;;;1812756;78;27566;-51
2022/06/05 09:09:29;;;;;;;3.52;1.70;;;;;;;;;;1811771;78;26713;-50
2022/06/05 09:11:58;;;;;;;2.15;1.55;;;;;;;;;;1803046;78;25706;-50
2022/06/05 09:14:26;;;;;;;2.55;1.50;;;;;;;;;;1800657;78;26350;-50
2022/06/05 09:16:55;;;;;;;1.47;1.37;;;;;;;;;;1791792;78;26303;-49
2022/06/05 09:19:24;;;;;;;1.32;1.25;;;;;;;;;;1805623;78;26319;-51
2022/06/05 09:21:53;;;;;;;1.40;1.30;;;;;;;;;;1822965;78;26388;-53
2022/06/05 09:24:24;;;;;;;1.40;1.40;;;;;;;;;;1822178;78;26260;-49
2022/06/05 09:26:53;;;;;;;1.40;1.30;;;;;;;;;;1817258;78;26220;-50
2022/06/05 09:29:37;;;;;;;1.75;1.50;;;;;;;;;;1803048;78;26295;-49
2022/06/05 09:32:09;;;;;;;1.47;1.37;;;;;;;;;;1806948;78;26936;-51
2022/06/05 09:34:49;;;;;;;3.95;1.65;;;;;;;;;;1797884;78;26259;-52
2022/06/05 09:37:18;;;;;;;1.35;1.30;;;;;;;;;;1810140;78;26321;-48
2022/06/05 09:40:02;;;;;;;1.40;1.40;;;;;;;;;;1827444;78;26805;-48
2022/06/05 09:42:43;;;;;;;1.60;1.50;;;;;;;;;;1804752;78;26376;-51
2022/06/05 09:45:18;;;;;;;1.47;1.47;;;;;;;;;;1812166;78;26370;-49
2022/06/05 09:47:46;;;;;;;2.20;1.30;;;;;;;;;;1787832;78;26740;-50
2022/06/05 09:50:21;;;;;;;1.80;1.47;;;;;;;;;;1811828;78;26300;-50
2022/06/05 09:52:49;;;;;;;2.02;1.72;;;;;;;;;;1805865;78;26409;-47
2022/06/05 09:55:18;;;;;;;3.65;1.40;;;;;;;;;;1801073;78;26894;-50
2022/06/05 10:00:45;;;;;;;1.62;1.60;;;;;;;;;;1811662;78;26406;-51
2022/06/05 10:03:17;;;;;;;2.75;1.50;;;;;;;;;;1811694;78;26244;-54
2022/06/05 10:05:46;;;;;;;1.57;1.47;;;;;;;;;;1805805;78;26326;-50
2022/06/05 10:08:24;;;;;;;3.85;1.60;;;;;;;;;;1803019;78;26258;-51
2022/06/05 10:10:52;;;;;;;1.77;1.60;;;;;;;;;;1800431;78;26396;-49
2022/06/05 10:13:30;;;;;;;1.80;1.42;;;;;;;;;;1799275;78;26757;-49
2022/06/05 10:16:02;;;;;;;1.55;1.45;;;;;;;;;;1810512;78;26746;-48
2022/06/05 10:18:48;;;;;;;1.52;1.42;;;;;;;;;;1808314;78;26779;-49
2022/06/05 10:21:20;;;;;;;1.60;1.50;;;;;;;;;;1807124;78;26360;-53
2022/06/05 10:23:46;;;;;;;1.72;1.62;;;;;;;;;;1808175;78;26416;-50
2022/06/05 10:26:15;;;;;;;2.77;1.67;;;;;;;;;;1807599;78;26914;-53
2022/06/05 10:28:43;;;;;;;1.52;1.42;;;;;;;;;;1798797;78;26301;-49
2022/06/05 10:31:12;;;;;;;1.75;1.65;;;;;;;;;;1807548;78;26328;-48
2022/06/05 10:33:41;;;;;;;3.67;1.50;;;;;;;;;;1811569;78;26298;-49
2022/06/05 10:36:09;;;;;;;1.75;1.65;;;;;;;;;;1808329;78;26348;-52
2022/06/05 10:38:50;;;;;;;1.50;1.40;;;;;;;;;;1808093;78;26337;-51
2022/06/05 10:41:19;;;;;;;1.60;1.50;;;;;;;;;;1794259;78;26312;-50
2022/06/05 10:43:48;;;;;;;2.67;1.80;;;;;;;;;;1788999;78;27381;-50
2022/06/05 10:46:19;;;;;;;2.87;1.72;;;;;;;;;;1803503;78;26275;-47
2022/06/05 10:48:57;;;;;;;1.72;1.55;;;;;;;;;;1812056;78;26279;-50
2022/06/05 10:51:35;;;;;;;2.90;1.57;;;;;;;;;;1800806;78;26797;-51
2022/06/05 10:54:16;;;;;;;3.95;1.85;;;;;;;;;;1806460;78;26835;-52
2022/06/05 10:56:45;;;;;;;3.45;1.65;;;;;;;;;;1804673;78;26197;-53
2022/06/05 10:59:17;;;;;;;4.55;1.80;;;;;;;;;;1808540;78;26479;-53
2022/06/05 11:02:01;;;;;;;6.42;1.90;;;;;;;;;;1823218;78;26767;-49
2022/06/05 11:04:41;;;;;;;3.65;1.72;;;;;;;;;;1814702;78;26773;-48
2022/06/05 11:07:16;;;;;;;2.05;1.67;;;;;;;;;;1812855;78;26294;-51
2022/06/05 11:09:53;;;;;;;2.80;1.70;;;;;;;;;;1813498;78;26687;-51
2022/06/05 11:15:18;;;;;;;1.92;1.82;;;;;;;;;;1802678;78;26300;-50
2022/06/05 11:17:47;;;;;;;3.55;1.80;;;;;;;;;;1810833;78;26656;-51
2022/06/05 11:20:16;;;;;;;3.75;1.55;;;;;;;;;;1809474;78;26747;-47
2022/06/05 11:23:00;;;;;;;3.30;1.67;;;;;;;;;;1813609;78;26286;-50
2022/06/05 11:25:32;;;;;;;3.15;1.60;;;;;;;;;;1812402;78;26579;-49
2022/06/05 11:28:17;;;;;;;2.02;1.60;;;;;;;;;;1813199;78;26311;-51
2022/06/05 11:30:47;;;;;;;1.60;1.50;;;;;;;;;;1797783;78;26317;-48
2022/06/05 11:33:23;;;;;;;3.45;1.50;;;;;;;;;;1800796;78;26893;-49
2022/06/05 11:35:57;;;;;;;3.08;1.50;;;;;;;;;;1788932;78;26313;-52
2022/06/05 11:38:35;;;;;;;2.12;1.70;;;;;;;;;;1810156;78;26756;-49
2022/06/05 11:41:22;;;;;;;1.77;1.42;;;;;;;;;;1809968;78;26312;-49
2022/06/05 11:43:54;;;;;;;2.95;1.30;;;;;;;;;;1802361;78;26353;-47
2022/06/05 11:46:23;;;;;;;1.50;1.40;;;;;;;;;;1829691;78;26771;-52
2022/06/05 11:49:06;;;;;;;1.40;1.40;;;;;;;;;;1809882;78;26322;-47
2022/06/05 11:51:34;;;;;;;3.12;1.55;;;;;;;;;;1810328;78;26962;-50
2022/06/05 11:54:19;;;;;;;1.67;1.40;;;;;;;;;;1810920;78;26744;-46
2022/06/05 11:57:00;;;;;;;6.10;1.60;;;;;;;;;;1831498;78;26787;-49
2022/06/05 11:59:28;;;;;;;1.40;1.30;;;;;;;;;;1800744;78;26311;-51
2022/06/05 12:01:57;;;;;;;1.52;1.42;;;;;;;;;;1815479;78;26736;-50
2022/06/05 12:04:26;;;;;;;2.62;1.32;;;;;;;;;;1790639;78;26761;-47
2022/06/05 12:06:58;;;;;;;3.42;1.27;;;;;;;;;;1799781;78;26292;-53
2022/06/05 12:09:27;;;;;;;1.10;1.10;;;;;;;;;;1811087;78;26362;-47
2022/06/05 12:11:58;;;;;;;1.40;1.30;;;;;;;;;;1821028;78;26396;-50
2022/06/05 12:14:27;;;;;;;1.32;1.22;;;;;;;;;;1799268;78;26223;-51
2022/06/05 12:17:08;;;;;;;3.40;1.30;;;;;;;;;;1798122;78;26368;-49
2022/06/05 12:19:55;;;;;;;1.50;1.40;;;;;;;;;;1803290;78;26291;-53
2022/06/05 12:22:42;;;;;;;1.40;1.30;;;;;;;;;;1801307;78;26364;-50
2022/06/05 12:25:19;;;;;;;1.20;1.20;;;;;;;;;;1803382;78;26275;-48
2022/06/05 12:27:48;;;;;;;1.92;1.30;;;;;;;;;;1802110;78;26361;-49
2022/06/05 12:30:17;;;;;;;1.37;1.30;;;;;;;;;;1802303;78;26361;-51
2022/06/05 12:32:54;;;;;;;1.30;1.20;;;;;;;;;;1799527;78;26699;-50
2022/06/05 12:35:36;;;;;;;1.20;1.20;;;;;;;;;;1799543;78;26320;-50
2022/06/05 12:38:07;;;;;;;1.10;1.10;;;;;;;;;;1803940;78;26731;-49
2022/06/05 12:40:36;;;;;;;1.95;1.20;;;;;;;;;;1797775;78;26360;-53
2022/06/05 12:43:04;;;;;;;1.10;1.10;;;;;;;;;;1801516;78;26340;-48
2022/06/05 12:45:33;;;;;;;1.15;1.05;;;;;;;;;;1790573;78;26290;-53
2022/06/05 12:48:01;;;;;;;2.87;1.20;;;;;;;;;;1797274;78;26657;-46
2022/06/05 12:50:36;;;;;;;5.15;1.50;;;;;;;;;;1801572;78;26695;-49
2022/06/05 12:53:12;;;;;;;1.40;1.30;;;;;;;;;;1806493;78;26336;-50
2022/06/05 12:55:43;;;;;;;1.27;1.27;;;;;;;;;;1800899;78;26800;-51
2022/06/05 12:58:15;;;;;;;1.40;1.30;;;;;;;;;;1801133;78;26227;-49
2022/06/05 13:00:59;;;;;;;1.42;1.35;;;;;;;;;;1794200;78;26311;-51
2022/06/05 13:03:46;;;;;;;1.20;1.20;;;;;;;;;;1800926;78;26321;-53
2022/06/05 13:06:16;;;;;;;1.50;1.40;;;;;;;;;;1795678;78;26296;-46
2022/06/05 13:08:50;;;;;;;2.02;1.35;;;;;;;;;;1799461;78;26324;-46
2022/06/05 13:11:28;;;;;;;1.40;1.40;;;;;;;;;;1792869;78;27295;-51
2022/06/05 13:14:09;;;;;;;1.20;1.20;;;;;;;;;;1797964;78;26326;-49
2022/06/05 13:16:38;;;;;;;1.42;1.42;;;;;;;;;;1793125;78;27204;-48
2022/06/05 13:19:10;;;;;;;1.32;1.30;;;;;;;;;;1796490;78;26408;-47
2022/06/05 13:21:38;;;;;;;1.42;1.37;;;;;;;;;;1797700;78;26844;-49
2022/06/05 13:24:13;;;;;;;1.30;1.30;;;;;;;;;;1796711;78;26796;-49
2022/06/05 13:26:42;;;;;;;1.52;1.40;;;;;;;;;;1796871;79;26293;-48
2022/06/05 13:29:14;;;;;;;1.32;1.20;;;;;;;;;;1791391;79;26330;-48
2022/06/05 13:31:46;;;;;;;2.37;1.30;;;;;;;;;;1794479;78;26315;-47
2022/06/05 13:34:17;;;;;;;1.10;1.10;;;;;;;;;;1797747;78;26255;-47
2022/06/05 13:36:46;;;;;;;1.65;1.47;;;;;;;;;;1793595;79;26302;-48
2022/06/05 13:39:14;;;;;;;1.37;1.37;;;;;;;;;;1789654;79;26298;-51
2022/06/05 13:41:43;;;;;;;1.15;1.15;;;;;;;;;;1800997;78;26697;-48
2022/06/05 13:44:20;;;;;;;1.10;1.10;;;;;;;;;;1797441;78;26736;-50
2022/06/05 13:46:54;;;;;;;1.20;1.20;;;;;;;;;;1798150;78;27409;-50
2022/06/05 13:49:23;;;;;;;1.20;1.20;;;;;;;;;;1791956;78;26763;-50
2022/06/05 13:51:55;;;;;;;1.30;1.20;;;;;;;;;;1794970;79;26283;-50
2022/06/05 13:54:23;;;;;;;1.27;1.27;;;;;;;;;;1791250;78;26750;-47
2022/06/05 13:56:52;;;;;;;1.30;1.30;;;;;;;;;;1785021;79;27803;-48
2022/06/05 13:59:24;;;;;;;2.22;1.22;;;;;;;;;;1792496;78;26302;-52
2022/06/05 14:02:08;;;;;;;1.30;1.30;;;;;;;;;;1788117;78;26344;-46
2022/06/05 14:04:37;;;;;;;1.20;1.20;;;;;;;;;;1787115;78;26346;-52
2022/06/05 14:07:06;;;;;;;2.45;1.20;;;;;;;;;;1788629;78;26338;-49
2022/06/05 14:09:40;;;;;;;1.30;1.30;;;;;;;;;;1785002;78;26424;-48
2022/06/05 14:12:09;;;;;;;1.35;1.25;;;;;;;;;;1774121;79;26314;-50
2022/06/05 14:14:38;;;;;;;2.10;1.40;;;;;;;;;;1780561;79;26309;-50
2022/06/05 14:17:06;;;;;;;1.90;1.20;;;;;;;;;;1784282;79;26229;-50
2022/06/05 14:19:35;;;;;;;1.25;1.25;;;;;;;;;;1798122;79;26293;-47
2022/06/05 14:22:09;;;;;;;1.22;1.22;;;;;;;;;;1787310;79;26234;-48
2022/06/05 14:24:38;;;;;;;1.42;1.15;;;;;;;;;;1793186;79;26284;-53
2022/06/05 14:27:06;;;;;;;1.15;1.15;;;;;;;;;;1795391;79;26800;-52
2022/06/05 14:29:41;;;;;;;1.15;1.07;;;;;;;;;;1800820;79;26356;-50
2022/06/05 14:32:10;;;;;;;1.00;1.00;;;;;;;;;;1807493;79;26329;-53
2022/06/05 14:34:39;;;;;;;1.10;1.10;;;;;;;;;;1789598;79;26289;-51
2022/06/05 14:37:11;;;;;;;1.95;1.20;;;;;;;;;;1783595;78;26751;-47
2022/06/05 14:39:38;;;;;;;1.07;1.07;;;;;;;;;;1786759;78;26614;-52
2022/06/05 14:42:19;;;;;;;1.15;1.15;;;;;;;;;;1787086;80;26352;-52
2022/06/05 14:44:47;;;;;;;1.02;1.00;;;;;;;;;;1777787;78;26349;-49
2022/06/05 14:47:17;;;;;;;1.00;1.00;;;;;;;;;;1783666;79;26385;-51
2022/06/05 14:50:01;;;;;;;1.00;1.00;;;;;;;;;;1778472;78;26304;-53
2022/06/05 14:52:36;;;;;;;0.95;0.95;;;;;;;;;;1782737;78;26332;-51
2022/06/05 14:58:13;;;;;;;0.90;0.90;;;;;;;;;;1777124;79;26481;-48
2022/06/05 15:00:42;;;;;;;2.72;1.10;;;;;;;;;;1782670;79;26313;-49
2022/06/05 15:03:14;;;;;;;2.03;1.10;;;;;;;;;;1778345;79;25529;-54
2022/06/05 15:05:43;;;;;;;1.65;1.00;;;;;;;;;;1772661;78;28432;-52
2022/06/05 15:08:20;;;;;;;0.90;0.90;;;;;;;;;;1786272;79;26303;-53
2022/06/05 15:10:49;;;;;;;1.10;1.00;;;;;;;;;;1783236;78;28338;-53
2022/06/05 15:13:17;;;;;;;0.93;0.93;;;;;;;;;;1793210;78;26551;-52
2022/06/05 15:15:46;;;;;;;0.90;0.90;;;;;;;;;;1794773;78;27041;-49
2022/06/05 15:18:14;;;;;;;0.90;0.90;;;;;;;;;;1794526;78;26242;-54
2022/06/05 15:20:59;;;;;;;0.70;0.70;;;;;;;;;;1789551;78;26339;-52
2022/06/05 15:23:31;;;;;;;0.90;0.90;;;;;;;;;;1792912;78;26376;-51
2022/06/05 15:26:16;;;;;;;1.95;0.90;;;;;;;;;;1790579;78;26426;-49
2022/06/05 15:28:45;;;;;;;1.00;1.00;;;;;;;;;;1798372;78;26338;-52